createdAt,value
2023-03-17T00:01:43.392Z,86.81
2023-03-17T00:04:12.300Z,86.81
2023-03-17T00:06:39.588Z,86.84
2023-03-17T00:09:12.674Z,87.87
2023-03-17T00:11:39.192Z,87.09
2023-03-17T00:14:05.671Z,87.41
2023-03-17T00:16:37.499Z,87.72
2023-03-17T00:19:04.292Z,87.89
2023-03-17T00:21:33.088Z,87.88
2023-03-17T00:24:00.159Z,88.48
2023-03-17T00:26:27.686Z,88.74
2023-03-17T00:28:54.515Z,88.28
2023-03-17T00:31:26.032Z,88.36
2023-03-17T00:33:54.578Z,88.69
2023-03-17T00:36:27.478Z,89.08
2023-03-17T00:38:55.216Z,88.94
2023-03-17T00:41:22.024Z,88.51
2023-03-17T00:43:48.811Z,88.67
2023-03-17T00:46:26.275Z,88.96
2023-03-17T00:48:53.867Z,88.94
2023-03-17T00:51:20.903Z,88.93
2023-03-17T00:53:48.037Z,89.02
2023-03-17T00:56:17.333Z,89.13
2023-03-17T00:58:44.837Z,89.04
2023-03-17T01:01:11.575Z,89.44
2023-03-17T01:03:39.748Z,89.84
2023-03-17T01:06:09.390Z,89.51
2023-03-17T01:08:37.058Z,89.36
2023-03-17T01:11:03.571Z,89.18
2023-03-17T01:13:30.107Z,89.46
2023-03-17T01:15:56.658Z,90.08
2023-03-17T01:18:24.364Z,89.70
2023-03-17T01:20:51.380Z,90.05
2023-03-17T01:23:17.964Z,89.68
2023-03-17T01:25:44.551Z,90.56
2023-03-17T01:28:15.849Z,90.40
2023-03-17T01:30:42.524Z,90.10
2023-03-17T01:33:11.422Z,90.31
2023-03-17T01:35:38.990Z,90.33
2023-03-17T01:38:06.176Z,89.94
2023-03-17T01:40:35.882Z,90.27
2023-03-17T01:43:13.467Z,90.62
2023-03-17T01:46:17.559Z,90.87
2023-03-17T01:48:55.533Z,91.15
2023-03-17T01:51:38.611Z,90.92
2023-03-17T01:54:09.954Z,90.92
2023-03-17T01:56:38.589Z,90.86
2023-03-17T01:59:10.214Z,90.92
2023-03-17T02:01:45.149Z,91.32
2023-03-17T02:04:12.420Z,90.40
2023-03-17T02:06:55.109Z,90.28
2023-03-17T02:09:24.288Z,90.99
2023-03-17T02:11:50.895Z,90.55
2023-03-17T02:14:17.435Z,91.45
2023-03-17T02:16:45.098Z,90.97
2023-03-17T02:19:11.683Z,91.12
2023-03-17T02:21:39.969Z,91.13
2023-03-17T02:24:19.489Z,91.79
2023-03-17T02:26:47.709Z,91.48
2023-03-17T02:29:14.442Z,91.29
2023-03-17T02:31:41.064Z,90.69
2023-03-17T02:34:07.634Z,91.62
2023-03-17T02:36:34.173Z,91.68
2023-03-17T02:39:00.633Z,91.12
2023-03-17T02:41:30.287Z,91.28
2023-03-17T02:43:56.802Z,91.03
2023-03-17T02:46:23.311Z,92.06
2023-03-17T02:48:51.031Z,91.85
2023-03-17T02:51:17.510Z,92.16
2023-03-17T02:53:44.020Z,92.15
2023-03-17T02:56:10.748Z,92.04
2023-03-17T02:58:37.248Z,91.26
2023-03-17T03:01:03.938Z,91.44
2023-03-17T03:03:30.437Z,91.67
2023-03-17T03:05:57.004Z,91.50
2023-03-17T03:08:23.999Z,91.23
2023-03-17T03:10:50.423Z,91.04
2023-03-17T03:13:16.903Z,91.15
2023-03-17T03:15:43.939Z,91.10
2023-03-17T03:18:10.481Z,91.12
2023-03-17T03:20:36.905Z,91.83
2023-03-17T03:23:03.903Z,91.35
2023-03-17T03:25:30.382Z,91.85
2023-03-17T03:27:56.857Z,91.88
2023-03-17T03:30:23.417Z,92.20
2023-03-17T03:32:49.981Z,91.82
2023-03-17T03:35:16.502Z,92.07
2023-03-17T03:37:42.961Z,91.62
2023-03-17T03:40:10.251Z,91.38
2023-03-17T03:42:36.753Z,91.57
2023-03-17T03:45:03.684Z,91.58
2023-03-17T03:47:30.203Z,92.44
2023-03-17T03:49:56.633Z,92.38
2023-03-17T03:52:23.109Z,92.59
2023-03-17T03:54:50.231Z,92.72
2023-03-17T03:57:16.667Z,92.60
2023-03-17T03:59:43.157Z,93.10
2023-03-17T04:02:09.853Z,92.63
2023-03-17T04:04:36.486Z,92.56
2023-03-17T04:07:03.058Z,92.52
2023-03-17T04:09:29.543Z,92.38
2023-03-17T04:11:56.047Z,91.84
2023-03-17T04:14:22.529Z,92.62
2023-03-17T04:16:48.991Z,92.52
2023-03-17T04:19:15.488Z,92.57
2023-03-17T04:21:41.993Z,92.31
2023-03-17T04:24:08.657Z,92.40
2023-03-17T04:26:35.174Z,92.50
2023-03-17T04:29:01.642Z,92.51
2023-03-17T04:31:28.172Z,92.36
2023-03-17T04:33:54.667Z,92.14
2023-03-17T04:36:23.261Z,92.99
2023-03-17T04:38:49.730Z,92.65
2023-03-17T04:41:16.612Z,92.70
2023-03-17T04:43:43.055Z,92.55
2023-03-17T04:46:09.590Z,92.49
2023-03-17T04:48:36.592Z,93.05
2023-03-17T04:51:03.240Z,92.88
2023-03-17T04:53:29.670Z,93.02
2023-03-17T04:55:56.170Z,92.51
2023-03-17T04:58:30.333Z,92.43
2023-03-17T05:00:58.239Z,92.50
2023-03-17T05:03:27.626Z,92.74
2023-03-17T05:05:54.528Z,92.29
2023-03-17T05:08:21.014Z,92.10
2023-03-17T05:10:47.537Z,92.17
2023-03-17T05:13:13.998Z,92.35
2023-03-17T05:15:40.552Z,92.35
2023-03-17T05:18:07.063Z,92.21
2023-03-17T05:20:33.529Z,92.15
2023-03-17T05:22:59.955Z,92.04
2023-03-17T05:25:26.440Z,91.88
2023-03-17T05:27:53.005Z,92.15
2023-03-17T05:30:19.557Z,91.65
2023-03-17T05:32:46.326Z,91.84
2023-03-17T05:35:13.050Z,92.45
2023-03-17T05:37:39.551Z,92.29
2023-03-17T05:40:06.266Z,92.46
2023-03-17T05:42:32.716Z,92.48
2023-03-17T05:44:59.468Z,91.76
2023-03-17T05:47:25.990Z,91.85
2023-03-17T05:49:52.481Z,92.40
2023-03-17T05:52:18.943Z,91.85
2023-03-17T05:54:45.424Z,92.12
2023-03-17T05:57:11.925Z,92.62
2023-03-17T05:59:38.440Z,92.31
2023-03-17T06:02:04.953Z,92.66
2023-03-17T06:04:31.434Z,92.62
2023-03-17T06:06:57.882Z,92.79
2023-03-17T06:09:24.466Z,92.67
2023-03-17T06:11:50.937Z,93.01
2023-03-17T06:14:17.442Z,92.68
2023-03-17T06:16:43.938Z,92.70
2023-03-17T06:19:10.426Z,93.17
2023-03-17T06:21:36.966Z,92.78
2023-03-17T06:24:03.608Z,92.64
2023-03-17T06:26:30.405Z,93.55
2023-03-17T06:28:56.898Z,93.51
2023-03-17T06:31:23.437Z,93.41
2023-03-17T06:33:50.010Z,93.89
2023-03-17T06:36:16.520Z,94.26
2023-03-17T06:38:42.993Z,93.48
2023-03-17T06:41:09.541Z,94.16
2023-03-17T06:43:36.030Z,94.27
2023-03-17T06:46:02.540Z,94.44
2023-03-17T06:48:29.083Z,94.16
2023-03-17T06:50:55.607Z,93.84
2023-03-17T06:53:22.083Z,94.49
2023-03-17T06:55:48.543Z,94.40
2023-03-17T06:58:15.005Z,94.57
2023-03-17T07:00:41.873Z,94.64
2023-03-17T07:03:08.369Z,94.92
2023-03-17T07:05:34.857Z,94.85
2023-03-17T07:08:01.321Z,95.15
2023-03-17T07:10:27.863Z,95.37
2023-03-17T07:12:54.327Z,95.54
2023-03-17T07:15:20.821Z,95.82
2023-03-17T07:17:47.278Z,95.85
2023-03-17T07:20:13.830Z,95.80
2023-03-17T07:22:41.272Z,95.54
2023-03-17T07:25:08.377Z,95.49
2023-03-17T07:27:35.478Z,96.10
2023-03-17T07:30:03.972Z,95.17
2023-03-17T07:32:31.843Z,95.76
2023-03-17T07:34:58.360Z,95.56
2023-03-17T07:37:24.909Z,95.57
2023-03-17T07:39:51.426Z,95.63
2023-03-17T07:42:17.887Z,95.76
2023-03-17T07:44:44.587Z,95.63
2023-03-17T07:47:11.427Z,95.86
2023-03-17T07:49:41.622Z,95.68
2023-03-17T07:52:10.323Z,95.17
2023-03-17T07:54:36.890Z,95.45
2023-03-17T07:57:04.150Z,95.51
2023-03-17T07:59:30.624Z,94.87
2023-03-17T08:01:57.497Z,95.28
2023-03-17T08:04:23.995Z,94.74
2023-03-17T08:06:50.440Z,94.49
2023-03-17T08:09:16.923Z,94.37
2023-03-17T08:11:43.484Z,94.44
2023-03-17T08:14:10.031Z,94.49
2023-03-17T08:16:36.597Z,93.86
2023-03-17T08:19:03.132Z,93.54
2023-03-17T08:21:30.328Z,94.01
2023-03-17T08:23:56.791Z,93.98
2023-03-17T08:26:23.304Z,93.93
2023-03-17T08:28:49.837Z,93.19
2023-03-17T08:31:19.248Z,93.78
2023-03-17T08:33:48.098Z,92.98
2023-03-17T08:36:15.446Z,93.21
2023-03-17T08:38:43.013Z,93.16
2023-03-17T08:41:12.660Z,92.60
2023-03-17T08:43:39.980Z,92.47
2023-03-17T08:46:22.819Z,92.32
2023-03-17T08:48:50.811Z,92.29
2023-03-17T08:51:21.415Z,92.45
2023-03-17T08:53:49.484Z,92.16
2023-03-17T08:56:15.941Z,91.39
2023-03-17T08:58:43.175Z,91.58
2023-03-17T09:01:10.304Z,91.44
2023-03-17T09:03:38.131Z,91.18
2023-03-17T09:06:05.402Z,90.67
2023-03-17T09:08:32.776Z,90.30
2023-03-17T09:10:59.209Z,89.95
2023-03-17T09:13:25.676Z,89.67
2023-03-17T09:15:52.306Z,89.74
2023-03-17T09:18:21.459Z,89.58
2023-03-17T09:20:48.783Z,90.10
2023-03-17T09:23:15.305Z,90.58
2023-03-17T09:25:41.821Z,90.81
2023-03-17T09:28:08.558Z,91.36
2023-03-17T09:30:35.278Z,91.33
2023-03-17T09:33:01.753Z,91.02
2023-03-17T09:35:28.423Z,91.32
2023-03-17T09:37:55.001Z,91.39
2023-03-17T09:40:28.569Z,91.54
2023-03-17T09:43:23.830Z,90.99
2023-03-17T09:45:51.666Z,90.82
2023-03-17T09:48:24.253Z,91.60
2023-03-17T09:50:50.674Z,91.07
2023-03-17T09:53:25.471Z,91.46
2023-03-17T09:55:57.394Z,92.34
2023-03-17T09:58:30.912Z,92.32
2023-03-17T10:00:58.376Z,92.40
2023-03-17T10:03:25.364Z,93.14
2023-03-17T10:05:52.069Z,93.13
2023-03-17T10:08:31.770Z,93.51
2023-03-17T10:11:11.554Z,93.92
2023-03-17T10:14:15.625Z,93.72
2023-03-17T10:16:58.002Z,93.20
2023-03-17T10:19:45.470Z,93.28
2023-03-17T10:22:24.874Z,93.12
2023-03-17T10:24:56.481Z,93.11
2023-03-17T10:27:23.263Z,93.43
2023-03-17T10:29:49.884Z,92.60
2023-03-17T10:32:16.420Z,92.47
2023-03-17T10:34:43.465Z,92.68
2023-03-17T10:37:20.627Z,92.54
2023-03-17T10:39:51.147Z,92.64
2023-03-17T10:42:26.347Z,93.27
2023-03-17T10:45:14.226Z,93.50
2023-03-17T10:47:45.801Z,93.02
2023-03-17T10:50:15.218Z,93.34
2023-03-17T10:52:42.560Z,93.37
2023-03-17T10:55:14.368Z,93.69
2023-03-17T10:57:58.068Z,93.53
2023-03-17T11:00:29.760Z,93.26
2023-03-17T11:02:58.667Z,93.55
2023-03-17T11:05:29.857Z,93.55
2023-03-17T11:08:16.786Z,93.58
2023-03-17T11:10:43.822Z,93.92
2023-03-17T11:13:16.489Z,93.43
2023-03-17T11:15:48.189Z,93.22
2023-03-17T11:18:22.594Z,93.63
2023-03-17T11:21:24.392Z,93.88
2023-03-17T11:24:00.175Z,93.17
2023-03-17T11:26:29.762Z,93.08
2023-03-17T11:29:18.663Z,92.18
2023-03-17T11:31:54.705Z,91.71
2023-03-17T11:34:42.889Z,91.87
2023-03-17T11:37:35.446Z,92.51
2023-03-17T11:40:19.185Z,92.64
2023-03-17T11:43:07.108Z,92.22
2023-03-17T11:45:44.983Z,92.41
2023-03-17T11:48:30.088Z,92.64
2023-03-17T11:51:19.672Z,92.56
2023-03-17T11:53:55.451Z,92.70
2023-03-17T11:56:31.736Z,92.20
2023-03-17T11:59:10.856Z,92.34
2023-03-17T12:01:58.156Z,93.25
2023-03-17T12:04:43.504Z,93.70
2023-03-17T12:07:20.452Z,93.73
2023-03-17T12:10:17.747Z,94.68
2023-03-17T12:12:49.980Z,94.33
2023-03-17T12:15:30.748Z,96.06
2023-03-17T12:18:10.126Z,97.07
2023-03-17T12:21:08.511Z,97.42
2023-03-17T12:23:58.436Z,99.04
2023-03-17T12:26:37.605Z,100.00
2023-03-17T12:29:11.798Z,100.00
2023-03-17T12:31:45.892Z,100.00
2023-03-17T12:34:21.211Z,100.00
2023-03-17T12:36:48.927Z,100.00
2023-03-17T12:39:24.218Z,100.00
2023-03-17T12:41:53.373Z,100.00
2023-03-17T12:44:42.111Z,100.00
2023-03-17T12:47:39.396Z,100.00
2023-03-17T12:50:30.202Z,100.00
2023-03-17T12:53:05.643Z,100.00
2023-03-17T12:55:34.102Z,100.00
2023-03-17T12:58:02.412Z,100.00
2023-03-17T13:00:34.639Z,100.00
2023-03-17T13:03:15.135Z,100.00
2023-03-17T13:05:46.471Z,100.00
2023-03-17T13:08:21.895Z,100.00
2023-03-17T13:10:48.444Z,100.00
2023-03-17T13:13:55.733Z,100.00
2023-03-17T13:16:28.688Z,100.00
2023-03-17T13:19:19.066Z,100.00
2023-03-17T13:21:49.807Z,100.00
2023-03-17T13:24:16.226Z,100.00
2023-03-17T13:26:55.501Z,100.00
2023-03-17T13:29:31.286Z,100.00
2023-03-17T13:32:16.357Z,100.00
2023-03-17T13:34:51.114Z,100.00
2023-03-17T13:37:30.803Z,100.00
2023-03-17T13:40:06.030Z,100.00
2023-03-17T13:42:40.449Z,100.00
2023-03-17T13:45:38.725Z,100.00
2023-03-17T13:48:34.426Z,100.00
2023-03-17T13:51:21.723Z,100.00
2023-03-17T13:53:53.901Z,100.00
2023-03-17T13:56:41.615Z,100.00
2023-03-17T13:59:14.912Z,100.00
2023-03-17T14:01:46.116Z,100.00
2023-03-17T14:04:20.338Z,100.00
2023-03-17T14:06:50.290Z,100.00
2023-03-17T14:09:39.991Z,100.00
2023-03-17T14:12:28.498Z,100.00
2023-03-17T14:14:58.615Z,100.00
2023-03-17T14:17:56.196Z,100.00
2023-03-17T14:20:24.878Z,100.00
2023-03-17T14:22:59.511Z,100.00
2023-03-17T14:25:33.521Z,100.00
2023-03-17T14:28:03.670Z,100.00
2023-03-17T14:30:32.869Z,100.00
2023-03-17T14:33:07.277Z,100.00
2023-03-17T14:35:36.876Z,100.00
2023-03-17T14:38:18.147Z,100.00
2023-03-17T14:41:21.214Z,100.00
2023-03-17T14:43:48.545Z,100.00
2023-03-17T14:46:18.053Z,100.00
2023-03-17T14:48:48.269Z,100.00
2023-03-17T14:51:34.718Z,100.00
2023-03-17T14:54:02.956Z,100.00
2023-03-17T14:56:38.674Z,100.00
2023-03-17T14:59:18.853Z,100.00
2023-03-17T15:01:46.933Z,100.00
2023-03-17T15:04:17.988Z,100.00
2023-03-17T15:06:56.296Z,100.00
2023-03-17T15:09:30.363Z,100.00
2023-03-17T15:12:04.568Z,100.00
2023-03-17T15:14:38.117Z,100.00
2023-03-17T15:17:14.565Z,100.00
2023-03-17T15:19:44.779Z,100.00
2023-03-17T15:22:31.749Z,100.00
2023-03-17T15:25:01.232Z,100.00
2023-03-17T15:27:29.263Z,100.00
2023-03-17T15:29:55.771Z,100.00
2023-03-17T15:32:24.623Z,100.00
2023-03-17T15:34:54.451Z,100.00
2023-03-17T15:37:26.942Z,100.00
2023-03-17T15:39:54.716Z,100.00
2023-03-17T15:42:29.158Z,100.00
2023-03-17T15:44:55.904Z,100.00
2023-03-17T15:47:25.523Z,100.00
2023-03-17T15:49:55.718Z,100.00
2023-03-17T15:52:25.008Z,100.00
2023-03-17T15:54:58.175Z,100.00
2023-03-17T15:57:25.410Z,100.00
2023-03-17T15:59:52.045Z,100.00
2023-03-17T16:02:35.701Z,100.00
2023-03-17T16:05:15.995Z,100.00
2023-03-17T16:07:42.567Z,100.00
2023-03-17T16:10:19.356Z,100.00
2023-03-17T16:12:46.330Z,100.00
2023-03-17T16:15:23.244Z,100.00
2023-03-17T16:17:53.858Z,100.00
2023-03-17T16:20:24.505Z,100.00
2023-03-17T16:22:53.247Z,100.00
2023-03-17T16:25:31.605Z,100.00
2023-03-17T16:28:00.237Z,100.00
2023-03-17T16:30:32.525Z,100.00
2023-03-17T16:33:21.611Z,100.00
2023-03-17T16:35:48.719Z,100.00
2023-03-17T16:38:18.663Z,100.00
2023-03-17T16:40:47.113Z,100.00
2023-03-17T16:43:26.563Z,100.00
2023-03-17T16:45:58.887Z,100.00
2023-03-17T16:48:26.313Z,100.00
2023-03-17T16:50:53.661Z,100.00
2023-03-17T16:53:20.698Z,100.00
2023-03-17T16:55:47.524Z,100.00
2023-03-17T16:58:20.500Z,100.00
2023-03-17T17:00:48.568Z,100.00
2023-03-17T17:03:15.508Z,100.00
2023-03-17T17:05:42.381Z,100.00
2023-03-17T17:08:09.193Z,100.00
2023-03-17T17:10:36.434Z,100.00
2023-03-17T17:13:07.053Z,100.00
2023-03-17T17:15:35.106Z,100.00
2023-03-17T17:18:23.451Z,100.00
2023-03-17T17:20:51.816Z,100.00
2023-03-17T17:23:21.708Z,100.00
2023-03-17T17:25:49.247Z,100.00
2023-03-17T17:28:18.900Z,100.00
2023-03-17T17:30:45.604Z,100.00
2023-03-17T17:33:12.372Z,100.00
2023-03-17T17:35:39.296Z,100.00
2023-03-17T17:38:13.298Z,100.00
2023-03-17T17:40:39.746Z,100.00
2023-03-17T17:43:06.255Z,100.00
2023-03-17T17:45:33.025Z,100.00
2023-03-17T17:47:59.458Z,100.00
2023-03-17T17:50:28.821Z,100.00
2023-03-17T17:52:55.900Z,100.00
2023-03-17T17:55:22.382Z,100.00
2023-03-17T17:57:50.305Z,100.00
2023-03-17T18:00:18.850Z,100.00
2023-03-17T18:02:45.329Z,100.00
2023-03-17T18:05:12.613Z,100.00
2023-03-17T18:07:40.037Z,100.00
2023-03-17T18:10:07.051Z,100.00
2023-03-17T18:12:33.576Z,100.00
2023-03-17T18:15:00.094Z,100.00
2023-03-17T18:17:26.607Z,100.00
2023-03-17T18:19:53.073Z,100.00
2023-03-17T18:22:20.587Z,100.00
2023-03-17T18:24:47.448Z,100.00
2023-03-17T18:27:14.890Z,100.00
2023-03-17T18:29:41.673Z,100.00
2023-03-17T18:32:08.775Z,100.00
2023-03-17T18:34:40.607Z,100.00
2023-03-17T18:37:07.249Z,100.00
2023-03-17T18:39:33.756Z,100.00
2023-03-17T18:42:00.277Z,100.00
2023-03-17T18:44:26.765Z,100.00
2023-03-17T18:46:53.208Z,100.00
2023-03-17T18:49:19.653Z,100.00
2023-03-17T18:51:46.122Z,100.00
2023-03-17T18:54:12.592Z,100.00
2023-03-17T18:56:39.178Z,100.00
2023-03-17T18:59:05.648Z,100.00
2023-03-17T19:01:32.165Z,100.00
2023-03-17T19:03:58.666Z,100.00
2023-03-17T19:06:25.208Z,100.00
2023-03-17T19:08:51.685Z,100.00
2023-03-17T19:11:19.472Z,100.00
2023-03-17T19:13:45.951Z,100.00
2023-03-17T19:16:12.988Z,100.00
2023-03-17T19:18:41.881Z,100.00
2023-03-17T19:21:09.449Z,100.00
2023-03-17T19:23:35.919Z,100.00
2023-03-17T19:26:03.072Z,100.00
2023-03-17T19:28:29.553Z,100.00
2023-03-17T19:30:56.101Z,100.00
2023-03-17T19:33:22.745Z,100.00
2023-03-17T19:35:54.880Z,100.00
2023-03-17T19:38:22.529Z,100.00
2023-03-17T19:40:48.968Z,100.00
2023-03-17T19:43:28.821Z,100.00
2023-03-17T19:46:02.374Z,100.00
2023-03-17T19:48:28.847Z,100.00
2023-03-17T19:50:55.325Z,100.00
2023-03-17T19:53:21.992Z,100.00
2023-03-17T19:55:48.457Z,100.00
2023-03-17T19:58:14.910Z,100.00
2023-03-17T20:00:41.833Z,100.00
2023-03-17T20:03:08.337Z,100.00
2023-03-17T20:05:34.888Z,100.00
2023-03-17T20:08:01.333Z,100.00
2023-03-17T20:10:28.371Z,100.00
2023-03-17T20:12:54.856Z,100.00
2023-03-17T20:15:21.446Z,100.00
2023-03-17T20:17:47.989Z,100.00
2023-03-17T20:20:14.753Z,100.00
2023-03-17T20:22:41.208Z,100.00
2023-03-17T20:25:08.261Z,100.00
2023-03-17T20:27:34.839Z,100.00
2023-03-17T20:30:03.340Z,100.00
2023-03-17T20:32:29.894Z,100.00
2023-03-17T20:34:56.487Z,100.00
2023-03-17T20:37:23.008Z,100.00
2023-03-17T20:39:49.507Z,100.00
2023-03-17T20:42:15.956Z,100.00
2023-03-17T20:44:42.470Z,100.00
2023-03-17T20:47:09.028Z,100.00
2023-03-17T20:49:35.868Z,100.00
2023-03-17T20:52:03.465Z,100.00
2023-03-17T20:54:29.916Z,100.00
2023-03-17T20:56:56.393Z,100.00
2023-03-17T20:59:23.610Z,100.00
2023-03-17T21:01:50.589Z,100.00
2023-03-17T21:04:17.098Z,100.00
2023-03-17T21:06:43.693Z,100.00
2023-03-17T21:09:10.186Z,100.00
2023-03-17T21:11:37.372Z,100.00
2023-03-17T21:14:04.910Z,100.00
2023-03-17T21:16:31.477Z,100.00
2023-03-17T21:18:58.264Z,100.00
2023-03-17T21:21:24.847Z,100.00
2023-03-17T21:23:51.404Z,100.00
2023-03-17T21:26:18.107Z,100.00
2023-03-17T21:28:44.597Z,100.00
2023-03-17T21:31:12.294Z,100.00
2023-03-17T21:33:39.304Z,100.00
2023-03-17T21:36:06.641Z,100.00
2023-03-17T21:38:33.180Z,100.00
2023-03-17T21:41:18.734Z,100.00
2023-03-17T21:43:45.210Z,100.00
2023-03-17T21:46:11.834Z,100.00
2023-03-17T21:48:38.338Z,100.00
2023-03-17T21:51:05.054Z,100.00
2023-03-17T21:53:31.488Z,100.00
2023-03-17T21:55:57.942Z,100.00
2023-03-17T21:58:31.394Z,100.00
2023-03-17T22:00:57.949Z,100.00
2023-03-17T22:03:24.539Z,100.00
2023-03-17T22:05:51.326Z,100.00
2023-03-17T22:08:17.821Z,100.00
2023-03-17T22:10:44.722Z,100.00
2023-03-17T22:13:11.364Z,100.00
2023-03-17T22:15:37.865Z,100.00
2023-03-17T22:18:04.453Z,100.00
2023-03-17T22:20:31.290Z,100.00
2023-03-17T22:22:57.887Z,100.00
2023-03-17T22:25:24.351Z,100.00
2023-03-17T22:27:50.793Z,100.00
2023-03-17T22:30:17.411Z,100.00
2023-03-17T22:32:43.939Z,100.00
2023-03-17T22:35:10.477Z,100.00
2023-03-17T22:37:36.906Z,100.00
2023-03-17T22:40:04.068Z,100.00
2023-03-17T22:42:30.691Z,100.00
2023-03-17T22:44:57.126Z,100.00
2023-03-17T22:47:23.639Z,100.00
2023-03-17T22:49:50.202Z,100.00
2023-03-17T22:52:16.643Z,100.00
2023-03-17T22:54:43.133Z,100.00
2023-03-17T22:57:09.645Z,100.00
2023-03-17T22:59:36.196Z,100.00
2023-03-17T23:02:02.693Z,100.00
2023-03-17T23:04:29.155Z,100.00
2023-03-17T23:06:55.601Z,100.00
2023-03-17T23:09:22.163Z,100.00
2023-03-17T23:11:48.613Z,100.00
2023-03-17T23:14:15.224Z,100.00
2023-03-17T23:16:41.755Z,100.00
2023-03-17T23:19:08.293Z,100.00
2023-03-17T23:21:37.395Z,100.00
2023-03-17T23:24:04.664Z,100.00
2023-03-17T23:26:31.109Z,100.00
2023-03-17T23:28:57.691Z,100.00
2023-03-17T23:31:24.290Z,100.00
2023-03-17T23:33:50.817Z,100.00
2023-03-17T23:36:18.360Z,100.00
2023-03-17T23:38:45.388Z,100.00
2023-03-17T23:41:12.924Z,100.00
2023-03-17T23:43:40.415Z,100.00
2023-03-17T23:46:07.156Z,100.00
2023-03-17T23:48:33.667Z,100.00
2023-03-17T23:51:00.157Z,100.00
2023-03-17T23:53:26.711Z,100.00
2023-03-17T23:55:53.649Z,100.00
2023-03-17T23:58:20.972Z,100.00
